sensor_id;sensor_type;location;lat;lon;timestamp;P1;durP1;ratioP1;P2;durP2;ratioP2
11228;SDS011;5671;47.936;8.716;2023-02-15T00:00:43;9.02;;;8.13;;
11228;SDS011;5671;47.936;8.716;2023-02-15T00:03:10;8.77;;;7.15;;
11228;SDS011;5671;47.936;8.716;2023-02-15T00:05:37;8.65;;;7.40;;
11228;SDS011;5671;47.936;8.716;2023-02-15T00:08:05;9.27;;;7.38;;
11228;SDS011;5671;47.936;8.716;2023-02-15T00:10:32;10.45;;;8.77;;
11228;SDS011;5671;47.936;8.716;2023-02-15T00:12:59;9.32;;;7.88;;
11228;SDS011;5671;47.936;8.716;2023-02-15T00:15:26;8.80;;;7.90;;
11228;SDS011;5671;47.936;8.716;2023-02-15T00:17:53;14.88;;;8.73;;
11228;SDS011;5671;47.936;8.716;2023-02-15T00:20:20;10.55;;;8.10;;
11228;SDS011;5671;47.936;8.716;2023-02-15T00:22:46;8.80;;;7.88;;
11228;SDS011;5671;47.936;8.716;2023-02-15T00:25:15;8.40;;;7.38;;
11228;SDS011;5671;47.936;8.716;2023-02-15T00:27:41;8.70;;;7.80;;
11228;SDS011;5671;47.936;8.716;2023-02-15T00:30:08;7.93;;;7.13;;
11228;SDS011;5671;47.936;8.716;2023-02-15T00:32:36;8.25;;;7.35;;
11228;SDS011;5671;47.936;8.716;2023-02-15T00:35:03;8.40;;;7.25;;
11228;SDS011;5671;47.936;8.716;2023-02-15T00:37:31;9.30;;;7.70;;
11228;SDS011;5671;47.936;8.716;2023-02-15T00:39:58;7.90;;;6.82;;
11228;SDS011;5671;47.936;8.716;2023-02-15T00:42:26;8.20;;;6.82;;
11228;SDS011;5671;47.936;8.716;2023-02-15T00:44:53;7.53;;;6.63;;
11228;SDS011;5671;47.936;8.716;2023-02-15T00:47:20;6.75;;;5.90;;
11228;SDS011;5671;47.936;8.716;2023-02-15T00:49:46;7.90;;;6.07;;
11228;SDS011;5671;47.936;8.716;2023-02-15T00:52:13;7.90;;;5.72;;
11228;SDS011;5671;47.936;8.716;2023-02-15T00:54:40;6.97;;;5.28;;
11228;SDS011;5671;47.936;8.716;2023-02-15T00:57:07;8.13;;;5.70;;
11228;SDS011;5671;47.936;8.716;2023-02-15T00:59:35;7.68;;;6.28;;
11228;SDS011;5671;47.936;8.716;2023-02-15T01:02:02;9.50;;;7.72;;
11228;SDS011;5671;47.936;8.716;2023-02-15T01:04:28;7.72;;;6.55;;
11228;SDS011;5671;47.936;8.716;2023-02-15T01:06:55;7.95;;;6.95;;
11228;SDS011;5671;47.936;8.716;2023-02-15T01:09:22;6.90;;;6.20;;
11228;SDS011;5671;47.936;8.716;2023-02-15T01:11:49;7.78;;;6.28;;
11228;SDS011;5671;47.936;8.716;2023-02-15T01:14:19;7.45;;;5.93;;
11228;SDS011;5671;47.936;8.716;2023-02-15T01:16:48;7.10;;;5.93;;
11228;SDS011;5671;47.936;8.716;2023-02-15T01:19:15;9.40;;;6.60;;
11228;SDS011;5671;47.936;8.716;2023-02-15T01:21:41;6.78;;;6.07;;
11228;SDS011;5671;47.936;8.716;2023-02-15T01:24:10;6.03;;;5.43;;
11228;SDS011;5671;47.936;8.716;2023-02-15T01:26:38;6.80;;;6.10;;
11228;SDS011;5671;47.936;8.716;2023-02-15T01:29:05;7.45;;;6.13;;
11228;SDS011;5671;47.936;8.716;2023-02-15T01:31:32;10.15;;;5.82;;
11228;SDS011;5671;47.936;8.716;2023-02-15T01:34:00;6.43;;;5.72;;
11228;SDS011;5671;47.936;8.716;2023-02-15T01:36:27;6.28;;;5.63;;
11228;SDS011;5671;47.936;8.716;2023-02-15T01:38:55;6.07;;;5.45;;
11228;SDS011;5671;47.936;8.716;2023-02-15T01:41:22;8.63;;;6.07;;
11228;SDS011;5671;47.936;8.716;2023-02-15T01:43:49;8.20;;;6.22;;
11228;SDS011;5671;47.936;8.716;2023-02-15T01:46:18;6.82;;;5.68;;
11228;SDS011;5671;47.936;8.716;2023-02-15T01:48:49;7.15;;;6.30;;
11228;SDS011;5671;47.936;8.716;2023-02-15T01:51:22;6.47;;;5.78;;
11228;SDS011;5671;47.936;8.716;2023-02-15T01:53:52;6.57;;;5.60;;
11228;SDS011;5671;47.936;8.716;2023-02-15T01:56:23;7.30;;;6.32;;
11228;SDS011;5671;47.936;8.716;2023-02-15T01:58:53;6.47;;;5.70;;
11228;SDS011;5671;47.936;8.716;2023-02-15T02:01:23;6.65;;;5.60;;
11228;SDS011;5671;47.936;8.716;2023-02-15T02:03:57;7.18;;;6.10;;
11228;SDS011;5671;47.936;8.716;2023-02-15T02:06:28;8.82;;;6.72;;
11228;SDS011;5671;47.936;8.716;2023-02-15T02:08:56;7.63;;;6.47;;
11228;SDS011;5671;47.936;8.716;2023-02-15T02:11:24;8.52;;;6.60;;
11228;SDS011;5671;47.936;8.716;2023-02-15T02:13:51;7.60;;;6.40;;
11228;SDS011;5671;47.936;8.716;2023-02-15T02:16:20;8.77;;;7.10;;
11228;SDS011;5671;47.936;8.716;2023-02-15T02:18:55;10.30;;;7.40;;
11228;SDS011;5671;47.936;8.716;2023-02-15T02:22:08;8.38;;;6.68;;
11228;SDS011;5671;47.936;8.716;2023-02-15T02:24:58;8.23;;;6.57;;
11228;SDS011;5671;47.936;8.716;2023-02-15T02:27:49;9.30;;;6.90;;
11228;SDS011;5671;47.936;8.716;2023-02-15T02:30:34;8.00;;;6.35;;
11228;SDS011;5671;47.936;8.716;2023-02-15T02:33:29;9.00;;;7.15;;
11228;SDS011;5671;47.936;8.716;2023-02-15T02:36:03;9.10;;;7.35;;
11228;SDS011;5671;47.936;8.716;2023-02-15T02:38:42;10.68;;;7.45;;
11228;SDS011;5671;47.936;8.716;2023-02-15T02:41:20;10.05;;;7.65;;
11228;SDS011;5671;47.936;8.716;2023-02-15T02:43:57;11.55;;;8.30;;
11228;SDS011;5671;47.936;8.716;2023-02-15T02:46:32;10.68;;;7.93;;
11228;SDS011;5671;47.936;8.716;2023-02-15T02:49:05;9.90;;;7.57;;
11228;SDS011;5671;47.936;8.716;2023-02-15T02:51:32;10.68;;;7.80;;
11228;SDS011;5671;47.936;8.716;2023-02-15T02:53:59;10.63;;;7.30;;
11228;SDS011;5671;47.936;8.716;2023-02-15T02:56:32;8.68;;;6.57;;
11228;SDS011;5671;47.936;8.716;2023-02-15T02:59:04;11.05;;;7.30;;
11228;SDS011;5671;47.936;8.716;2023-02-15T03:01:36;7.93;;;6.18;;
11228;SDS011;5671;47.936;8.716;2023-02-15T03:04:07;8.85;;;7.05;;
11228;SDS011;5671;47.936;8.716;2023-02-15T03:06:39;11.80;;;8.45;;
11228;SDS011;5671;47.936;8.716;2023-02-15T03:09:12;15.25;;;9.05;;
11228;SDS011;5671;47.936;8.716;2023-02-15T03:11:44;8.80;;;6.68;;
11228;SDS011;5671;47.936;8.716;2023-02-15T03:14:12;9.13;;;6.40;;
11228;SDS011;5671;47.936;8.716;2023-02-15T03:16:41;9.70;;;7.30;;
11228;SDS011;5671;47.936;8.716;2023-02-15T03:19:12;8.88;;;6.70;;
11228;SDS011;5671;47.936;8.716;2023-02-15T03:21:42;8.30;;;6.20;;
11228;SDS011;5671;47.936;8.716;2023-02-15T03:24:23;8.82;;;6.68;;
11228;SDS011;5671;47.936;8.716;2023-02-15T03:26:52;8.25;;;6.40;;
11228;SDS011;5671;47.936;8.716;2023-02-15T03:29:21;10.07;;;7.00;;
11228;SDS011;5671;47.936;8.716;2023-02-15T03:31:51;8.98;;;7.18;;
11228;SDS011;5671;47.936;8.716;2023-02-15T03:34:24;12.30;;;8.73;;
11228;SDS011;5671;47.936;8.716;2023-02-15T03:36:52;14.25;;;9.35;;
11228;SDS011;5671;47.936;8.716;2023-02-15T03:39:25;18.85;;;14.32;;
11228;SDS011;5671;47.936;8.716;2023-02-15T03:42:01;16.80;;;11.65;;
11228;SDS011;5671;47.936;8.716;2023-02-15T03:44:36;16.80;;;12.10;;
11228;SDS011;5671;47.936;8.716;2023-02-15T03:47:13;11.40;;;7.72;;
11228;SDS011;5671;47.936;8.716;2023-02-15T03:49:44;8.07;;;6.40;;
11228;SDS011;5671;47.936;8.716;2023-02-15T03:52:14;9.02;;;5.88;;
11228;SDS011;5671;47.936;8.716;2023-02-15T03:54:42;7.03;;;5.75;;
11228;SDS011;5671;47.936;8.716;2023-02-15T03:57:12;6.15;;;5.13;;
11228;SDS011;5671;47.936;8.716;2023-02-15T03:59:59;6.88;;;5.57;;
11228;SDS011;5671;47.936;8.716;2023-02-15T04:02:49;8.05;;;5.90;;
11228;SDS011;5671;47.936;8.716;2023-02-15T04:05:28;7.80;;;5.90;;
11228;SDS011;5671;47.936;8.716;2023-02-15T04:07:54;8.82;;;6.45;;
11228;SDS011;5671;47.936;8.716;2023-02-15T04:10:21;9.35;;;6.90;;
11228;SDS011;5671;47.936;8.716;2023-02-15T04:13:06;8.68;;;6.38;;
11228;SDS011;5671;47.936;8.716;2023-02-15T04:15:32;8.80;;;7.10;;
11228;SDS011;5671;47.936;8.716;2023-02-15T04:18:17;8.82;;;6.82;;
11228;SDS011;5671;47.936;8.716;2023-02-15T04:20:45;7.65;;;6.25;;
11228;SDS011;5671;47.936;8.716;2023-02-15T04:23:29;8.10;;;6.07;;
11228;SDS011;5671;47.936;8.716;2023-02-15T04:26:14;10.80;;;5.97;;
11228;SDS011;5671;47.936;8.716;2023-02-15T04:28:41;10.80;;;6.20;;
11228;SDS011;5671;47.936;8.716;2023-02-15T04:31:07;7.90;;;6.03;;
11228;SDS011;5671;47.936;8.716;2023-02-15T04:33:34;8.07;;;6.78;;
11228;SDS011;5671;47.936;8.716;2023-02-15T04:36:03;9.98;;;6.65;;
11228;SDS011;5671;47.936;8.716;2023-02-15T04:38:30;9.50;;;7.00;;
11228;SDS011;5671;47.936;8.716;2023-02-15T04:40:57;8.13;;;6.30;;
11228;SDS011;5671;47.936;8.716;2023-02-15T04:43:23;8.82;;;6.85;;
11228;SDS011;5671;47.936;8.716;2023-02-15T04:45:50;9.15;;;7.10;;
11228;SDS011;5671;47.936;8.716;2023-02-15T04:48:17;9.50;;;6.60;;
11228;SDS011;5671;47.936;8.716;2023-02-15T04:50:44;9.07;;;6.70;;
11228;SDS011;5671;47.936;8.716;2023-02-15T04:53:12;10.32;;;6.85;;
11228;SDS011;5671;47.936;8.716;2023-02-15T04:55:41;7.70;;;6.28;;
11228;SDS011;5671;47.936;8.716;2023-02-15T04:58:08;8.45;;;6.25;;
11228;SDS011;5671;47.936;8.716;2023-02-15T05:00:35;9.27;;;6.13;;
11228;SDS011;5671;47.936;8.716;2023-02-15T05:03:01;7.43;;;5.75;;
11228;SDS011;5671;47.936;8.716;2023-02-15T05:05:28;7.07;;;5.93;;
11228;SDS011;5671;47.936;8.716;2023-02-15T05:07:55;9.10;;;6.20;;
11228;SDS011;5671;47.936;8.716;2023-02-15T05:10:23;8.50;;;6.13;;
11228;SDS011;5671;47.936;8.716;2023-02-15T05:12:50;9.32;;;6.40;;
11228;SDS011;5671;47.936;8.716;2023-02-15T05:15:17;8.18;;;5.97;;
11228;SDS011;5671;47.936;8.716;2023-02-15T05:17:46;8.50;;;6.95;;
11228;SDS011;5671;47.936;8.716;2023-02-15T05:20:13;8.90;;;5.85;;
11228;SDS011;5671;47.936;8.716;2023-02-15T05:22:40;8.70;;;5.70;;
11228;SDS011;5671;47.936;8.716;2023-02-15T05:25:07;7.72;;;5.80;;
11228;SDS011;5671;47.936;8.716;2023-02-15T05:27:53;7.65;;;6.07;;
11228;SDS011;5671;47.936;8.716;2023-02-15T05:30:37;7.70;;;5.70;;
11228;SDS011;5671;47.936;8.716;2023-02-15T05:33:04;7.90;;;6.10;;
11228;SDS011;5671;47.936;8.716;2023-02-15T05:35:32;8.45;;;5.70;;
11228;SDS011;5671;47.936;8.716;2023-02-15T05:37:59;8.13;;;5.93;;
11228;SDS011;5671;47.936;8.716;2023-02-15T05:40:26;8.07;;;6.15;;
11228;SDS011;5671;47.936;8.716;2023-02-15T05:42:54;6.30;;;5.00;;
11228;SDS011;5671;47.936;8.716;2023-02-15T05:45:22;5.57;;;4.43;;
11228;SDS011;5671;47.936;8.716;2023-02-15T05:47:49;5.53;;;4.28;;
11228;SDS011;5671;47.936;8.716;2023-02-15T05:50:16;7.18;;;4.70;;
11228;SDS011;5671;47.936;8.716;2023-02-15T05:52:43;6.80;;;4.68;;
11228;SDS011;5671;47.936;8.716;2023-02-15T05:55:10;6.28;;;4.82;;
11228;SDS011;5671;47.936;8.716;2023-02-15T05:57:37;5.85;;;4.30;;
11228;SDS011;5671;47.936;8.716;2023-02-15T06:00:06;6.43;;;4.85;;
11228;SDS011;5671;47.936;8.716;2023-02-15T06:02:34;5.78;;;4.43;;
11228;SDS011;5671;47.936;8.716;2023-02-15T06:05:01;7.65;;;6.00;;
11228;SDS011;5671;47.936;8.716;2023-02-15T06:07:28;7.85;;;5.47;;
11228;SDS011;5671;47.936;8.716;2023-02-15T06:09:55;7.00;;;5.25;;
11228;SDS011;5671;47.936;8.716;2023-02-15T06:12:22;8.60;;;5.60;;
11228;SDS011;5671;47.936;8.716;2023-02-15T06:14:48;9.68;;;4.90;;
11228;SDS011;5671;47.936;8.716;2023-02-15T06:17:17;7.53;;;4.80;;
11228;SDS011;5671;47.936;8.716;2023-02-15T06:19:44;8.98;;;5.25;;
11228;SDS011;5671;47.936;8.716;2023-02-15T06:22:10;8.18;;;5.47;;
11228;SDS011;5671;47.936;8.716;2023-02-15T06:24:38;7.72;;;5.78;;
11228;SDS011;5671;47.936;8.716;2023-02-15T06:27:07;10.32;;;5.85;;
11228;SDS011;5671;47.936;8.716;2023-02-15T06:29:34;8.75;;;5.82;;
11228;SDS011;5671;47.936;8.716;2023-02-15T06:32:01;7.47;;;5.30;;
11228;SDS011;5671;47.936;8.716;2023-02-15T06:34:29;9.90;;;5.57;;
11228;SDS011;5671;47.936;8.716;2023-02-15T06:36:55;9.60;;;5.88;;
11228;SDS011;5671;47.936;8.716;2023-02-15T06:39:22;9.18;;;6.22;;
11228;SDS011;5671;47.936;8.716;2023-02-15T06:41:49;8.35;;;6.05;;
11228;SDS011;5671;47.936;8.716;2023-02-15T06:44:16;7.13;;;5.40;;
11228;SDS011;5671;47.936;8.716;2023-02-15T06:46:43;6.95;;;5.18;;
11228;SDS011;5671;47.936;8.716;2023-02-15T06:49:09;6.65;;;4.95;;
11228;SDS011;5671;47.936;8.716;2023-02-15T06:51:37;7.68;;;5.05;;
11228;SDS011;5671;47.936;8.716;2023-02-15T06:54:04;6.38;;;4.88;;
11228;SDS011;5671;47.936;8.716;2023-02-15T06:56:31;6.75;;;4.47;;
11228;SDS011;5671;47.936;8.716;2023-02-15T06:58:58;7.25;;;4.90;;
11228;SDS011;5671;47.936;8.716;2023-02-15T07:01:25;7.78;;;5.63;;
11228;SDS011;5671;47.936;8.716;2023-02-15T07:03:53;6.18;;;4.47;;
11228;SDS011;5671;47.936;8.716;2023-02-15T07:06:19;8.35;;;4.88;;
11228;SDS011;5671;47.936;8.716;2023-02-15T07:08:48;7.50;;;4.97;;
11228;SDS011;5671;47.936;8.716;2023-02-15T07:11:17;7.88;;;5.55;;
11228;SDS011;5671;47.936;8.716;2023-02-15T07:14:02;7.32;;;4.88;;
11228;SDS011;5671;47.936;8.716;2023-02-15T07:16:28;6.28;;;4.30;;
11228;SDS011;5671;47.936;8.716;2023-02-15T07:18:55;5.65;;;3.95;;
11228;SDS011;5671;47.936;8.716;2023-02-15T07:21:22;7.03;;;5.13;;
11228;SDS011;5671;47.936;8.716;2023-02-15T07:23:50;7.13;;;5.30;;
11228;SDS011;5671;47.936;8.716;2023-02-15T07:26:17;8.30;;;5.40;;
11228;SDS011;5671;47.936;8.716;2023-02-15T07:28:44;9.32;;;6.03;;
11228;SDS011;5671;47.936;8.716;2023-02-15T07:31:11;8.07;;;5.72;;
11228;SDS011;5671;47.936;8.716;2023-02-15T07:33:37;8.77;;;6.32;;
11228;SDS011;5671;47.936;8.716;2023-02-15T07:36:04;9.23;;;6.47;;
11228;SDS011;5671;47.936;8.716;2023-02-15T07:38:32;9.77;;;6.03;;
11228;SDS011;5671;47.936;8.716;2023-02-15T07:41:03;8.80;;;6.00;;
11228;SDS011;5671;47.936;8.716;2023-02-15T07:43:32;8.80;;;6.38;;
11228;SDS011;5671;47.936;8.716;2023-02-15T07:46:00;9.85;;;7.32;;
11228;SDS011;5671;47.936;8.716;2023-02-15T07:48:27;8.73;;;6.57;;
11228;SDS011;5671;47.936;8.716;2023-02-15T07:50:54;7.68;;;6.10;;
11228;SDS011;5671;47.936;8.716;2023-02-15T07:53:24;9.82;;;6.70;;
11228;SDS011;5671;47.936;8.716;2023-02-15T07:55:51;11.23;;;6.07;;
11228;SDS011;5671;47.936;8.716;2023-02-15T07:58:21;9.75;;;7.20;;
11228;SDS011;5671;47.936;8.716;2023-02-15T08:01:09;9.97;;;6.63;;
11228;SDS011;5671;47.936;8.716;2023-02-15T08:03:35;9.50;;;6.63;;
11228;SDS011;5671;47.936;8.716;2023-02-15T08:06:02;7.05;;;5.65;;
11228;SDS011;5671;47.936;8.716;2023-02-15T08:08:29;9.33;;;6.83;;
11228;SDS011;5671;47.936;8.716;2023-02-15T08:11:00;8.60;;;6.47;;
11228;SDS011;5671;47.936;8.716;2023-02-15T08:13:47;10.60;;;6.77;;
11228;SDS011;5671;47.936;8.716;2023-02-15T08:16:21;8.50;;;6.50;;
11228;SDS011;5671;47.936;8.716;2023-02-15T08:18:49;7.47;;;5.43;;
11228;SDS011;5671;47.936;8.716;2023-02-15T08:21:16;8.93;;;6.40;;
11228;SDS011;5671;47.936;8.716;2023-02-15T08:23:43;14.23;;;7.00;;
11228;SDS011;5671;47.936;8.716;2023-02-15T08:26:09;10.83;;;7.10;;
11228;SDS011;5671;47.936;8.716;2023-02-15T08:28:36;9.47;;;7.17;;
11228;SDS011;5671;47.936;8.716;2023-02-15T08:31:05;11.97;;;7.03;;
11228;SDS011;5671;47.936;8.716;2023-02-15T08:33:32;9.20;;;7.30;;
11228;SDS011;5671;47.936;8.716;2023-02-15T08:36:02;8.87;;;6.63;;
11228;SDS011;5671;47.936;8.716;2023-02-15T08:38:29;12.43;;;6.87;;
11228;SDS011;5671;47.936;8.716;2023-02-15T08:40:56;8.63;;;6.20;;
11228;SDS011;5671;47.936;8.716;2023-02-15T08:43:23;8.63;;;6.70;;
11228;SDS011;5671;47.936;8.716;2023-02-15T08:45:50;10.20;;;6.60;;
11228;SDS011;5671;47.936;8.716;2023-02-15T08:48:18;11.10;;;7.93;;
11228;SDS011;5671;47.936;8.716;2023-02-15T08:50:45;9.37;;;6.30;;
11228;SDS011;5671;47.936;8.716;2023-02-15T08:53:12;8.37;;;6.57;;
11228;SDS011;5671;47.936;8.716;2023-02-15T08:55:38;10.10;;;6.90;;
11228;SDS011;5671;47.936;8.716;2023-02-15T08:58:05;8.87;;;5.90;;
11228;SDS011;5671;47.936;8.716;2023-02-15T09:00:32;7.07;;;5.57;;
11228;SDS011;5671;47.936;8.716;2023-02-15T09:02:59;9.20;;;6.30;;
11228;SDS011;5671;47.936;8.716;2023-02-15T09:05:27;9.87;;;6.67;;
11228;SDS011;5671;47.936;8.716;2023-02-15T09:07:54;9.73;;;6.67;;
11228;SDS011;5671;47.936;8.716;2023-02-15T09:10:21;9.53;;;6.43;;
11228;SDS011;5671;47.936;8.716;2023-02-15T09:12:47;7.80;;;5.83;;
11228;SDS011;5671;47.936;8.716;2023-02-15T09:15:16;12.27;;;5.90;;
11228;SDS011;5671;47.936;8.716;2023-02-15T09:17:42;7.73;;;5.93;;
11228;SDS011;5671;47.936;8.716;2023-02-15T09:20:09;7.83;;;5.83;;
11228;SDS011;5671;47.936;8.716;2023-02-15T09:22:38;9.07;;;6.20;;
11228;SDS011;5671;47.936;8.716;2023-02-15T09:25:05;10.13;;;6.93;;
11228;SDS011;5671;47.936;8.716;2023-02-15T09:27:32;7.60;;;5.70;;
11228;SDS011;5671;47.936;8.716;2023-02-15T09:29:59;7.70;;;6.60;;
11228;SDS011;5671;47.936;8.716;2023-02-15T09:32:26;16.07;;;6.93;;
11228;SDS011;5671;47.936;8.716;2023-02-15T09:34:53;9.50;;;6.27;;
11228;SDS011;5671;47.936;8.716;2023-02-15T09:37:19;12.13;;;5.77;;
11228;SDS011;5671;47.936;8.716;2023-02-15T09:39:47;7.40;;;5.83;;
11228;SDS011;5671;47.936;8.716;2023-02-15T09:42:18;10.17;;;7.80;;
11228;SDS011;5671;47.936;8.716;2023-02-15T09:45:03;12.47;;;7.87;;
11228;SDS011;5671;47.936;8.716;2023-02-15T09:47:55;16.37;;;12.23;;
11228;SDS011;5671;47.936;8.716;2023-02-15T09:50:36;18.80;;;12.10;;
11228;SDS011;5671;47.936;8.716;2023-02-15T09:56:02;15.13;;;12.30;;
11228;SDS011;5671;47.936;8.716;2023-02-15T09:58:38;19.77;;;12.73;;
11228;SDS011;5671;47.936;8.716;2023-02-15T10:01:14;17.77;;;11.30;;
11228;SDS011;5671;47.936;8.716;2023-02-15T10:03:55;15.77;;;12.40;;
11228;SDS011;5671;47.936;8.716;2023-02-15T10:06:34;15.53;;;12.53;;
11228;SDS011;5671;47.936;8.716;2023-02-15T10:09:12;16.17;;;14.10;;
11228;SDS011;5671;47.936;8.716;2023-02-15T10:12:08;21.33;;;14.37;;
11228;SDS011;5671;47.936;8.716;2023-02-15T10:14:57;18.80;;;15.67;;
11228;SDS011;5671;47.936;8.716;2023-02-15T10:17:41;20.00;;;15.77;;
11228;SDS011;5671;47.936;8.716;2023-02-15T10:20:19;18.10;;;14.70;;
11228;SDS011;5671;47.936;8.716;2023-02-15T10:22:57;16.10;;;13.97;;
11228;SDS011;5671;47.936;8.716;2023-02-15T10:25:38;16.30;;;13.40;;
11228;SDS011;5671;47.936;8.716;2023-02-15T10:28:11;14.17;;;12.67;;
11228;SDS011;5671;47.936;8.716;2023-02-15T10:30:45;17.50;;;13.47;;
11228;SDS011;5671;47.936;8.716;2023-02-15T10:33:16;14.90;;;13.30;;
11228;SDS011;5671;47.936;8.716;2023-02-15T10:36:01;14.03;;;11.57;;
11228;SDS011;5671;47.936;8.716;2023-02-15T10:38:39;18.37;;;14.17;;
11228;SDS011;5671;47.936;8.716;2023-02-15T10:41:15;18.97;;;15.80;;
11228;SDS011;5671;47.936;8.716;2023-02-15T10:49:42;16.80;;;13.90;;
11228;SDS011;5671;47.936;8.716;2023-02-15T10:52:21;20.20;;;13.67;;
11228;SDS011;5671;47.936;8.716;2023-02-15T10:55:00;18.57;;;14.70;;
11228;SDS011;5671;47.936;8.716;2023-02-15T10:57:34;16.03;;;13.27;;
11228;SDS011;5671;47.936;8.716;2023-02-15T11:00:11;19.13;;;13.80;;
11228;SDS011;5671;47.936;8.716;2023-02-15T11:02:48;16.17;;;14.40;;
11228;SDS011;5671;47.936;8.716;2023-02-15T11:05:30;16.50;;;14.77;;
11228;SDS011;5671;47.936;8.716;2023-02-15T11:08:07;18.33;;;14.00;;
11228;SDS011;5671;47.936;8.716;2023-02-15T11:10:37;19.13;;;14.17;;
11228;SDS011;5671;47.936;8.716;2023-02-15T11:13:09;16.53;;;12.60;;
11228;SDS011;5671;47.936;8.716;2023-02-15T11:15:41;14.73;;;13.23;;
11228;SDS011;5671;47.936;8.716;2023-02-15T11:18:13;25.33;;;12.10;;
11228;SDS011;5671;47.936;8.716;2023-02-15T11:20:43;16.30;;;11.90;;
11228;SDS011;5671;47.936;8.716;2023-02-15T11:23:16;15.90;;;11.87;;
11228;SDS011;5671;47.936;8.716;2023-02-15T11:25:44;15.03;;;11.50;;
11228;SDS011;5671;47.936;8.716;2023-02-15T11:28:17;12.43;;;11.03;;
11228;SDS011;5671;47.936;8.716;2023-02-15T11:30:48;14.73;;;11.70;;
11228;SDS011;5671;47.936;8.716;2023-02-15T11:33:17;13.60;;;10.97;;
11228;SDS011;5671;47.936;8.716;2023-02-15T11:35:48;16.40;;;10.40;;
11228;SDS011;5671;47.936;8.716;2023-02-15T11:38:19;16.93;;;11.10;;
11228;SDS011;5671;47.936;8.716;2023-02-15T11:40:48;14.97;;;11.13;;
11228;SDS011;5671;47.936;8.716;2023-02-15T11:43:17;13.87;;;11.03;;
11228;SDS011;5671;47.936;8.716;2023-02-15T11:45:50;15.63;;;11.03;;
11228;SDS011;5671;47.936;8.716;2023-02-15T11:48:17;12.10;;;10.17;;
11228;SDS011;5671;47.936;8.716;2023-02-15T11:50:44;12.93;;;9.67;;
11228;SDS011;5671;47.936;8.716;2023-02-15T11:53:12;14.20;;;10.90;;
11228;SDS011;5671;47.936;8.716;2023-02-15T11:55:42;13.00;;;10.93;;
11228;SDS011;5671;47.936;8.716;2023-02-15T11:58:13;14.10;;;11.00;;
11228;SDS011;5671;47.936;8.716;2023-02-15T12:00:47;13.37;;;10.57;;
11228;SDS011;5671;47.936;8.716;2023-02-15T12:03:20;18.27;;;12.10;;
11228;SDS011;5671;47.936;8.716;2023-02-15T12:05:53;16.57;;;11.67;;
11228;SDS011;5671;47.936;8.716;2023-02-15T12:08:24;16.20;;;12.67;;
11228;SDS011;5671;47.936;8.716;2023-02-15T12:10:57;15.63;;;12.20;;
11228;SDS011;5671;47.936;8.716;2023-02-15T12:13:28;16.70;;;11.93;;
11228;SDS011;5671;47.936;8.716;2023-02-15T12:15:57;15.37;;;11.87;;
11228;SDS011;5671;47.936;8.716;2023-02-15T12:18:34;12.90;;;10.90;;
11228;SDS011;5671;47.936;8.716;2023-02-15T12:21:05;11.80;;;10.20;;
11228;SDS011;5671;47.936;8.716;2023-02-15T12:23:34;24.37;;;11.33;;
11228;SDS011;5671;47.936;8.716;2023-02-15T12:26:08;15.00;;;9.60;;
11228;SDS011;5671;47.936;8.716;2023-02-15T12:28:35;15.60;;;10.00;;
11228;SDS011;5671;47.936;8.716;2023-02-15T12:31:09;12.20;;;9.13;;
11228;SDS011;5671;47.936;8.716;2023-02-15T12:33:46;12.10;;;9.40;;
11228;SDS011;5671;47.936;8.716;2023-02-15T12:36:15;12.50;;;9.20;;
11228;SDS011;5671;47.936;8.716;2023-02-15T12:38:49;13.10;;;9.70;;
11228;SDS011;5671;47.936;8.716;2023-02-15T12:41:29;14.27;;;9.40;;
11228;SDS011;5671;47.936;8.716;2023-02-15T12:44:03;12.67;;;7.87;;
11228;SDS011;5671;47.936;8.716;2023-02-15T12:46:34;9.40;;;8.10;;
11228;SDS011;5671;47.936;8.716;2023-02-15T12:49:04;8.03;;;7.10;;
11228;SDS011;5671;47.936;8.716;2023-02-15T12:51:42;8.67;;;6.20;;
11228;SDS011;5671;47.936;8.716;2023-02-15T12:54:15;8.50;;;6.70;;
11228;SDS011;5671;47.936;8.716;2023-02-15T12:56:43;10.10;;;6.80;;
11228;SDS011;5671;47.936;8.716;2023-02-15T12:59:12;11.13;;;6.57;;
11228;SDS011;5671;47.936;8.716;2023-02-15T13:01:42;11.67;;;7.10;;
11228;SDS011;5671;47.936;8.716;2023-02-15T13:04:14;9.73;;;7.63;;
11228;SDS011;5671;47.936;8.716;2023-02-15T13:06:48;8.80;;;7.03;;
11228;SDS011;5671;47.936;8.716;2023-02-15T13:09:19;11.07;;;7.77;;
11228;SDS011;5671;47.936;8.716;2023-02-15T13:11:51;12.93;;;8.07;;
11228;SDS011;5671;47.936;8.716;2023-02-15T13:14:19;10.67;;;9.03;;
11228;SDS011;5671;47.936;8.716;2023-02-15T13:16:50;12.70;;;7.93;;
11228;SDS011;5671;47.936;8.716;2023-02-15T13:19:19;9.33;;;8.33;;
11228;SDS011;5671;47.936;8.716;2023-02-15T13:21:55;12.63;;;7.50;;
11228;SDS011;5671;47.936;8.716;2023-02-15T13:24:24;10.03;;;8.37;;
11228;SDS011;5671;47.936;8.716;2023-02-15T13:26:54;11.10;;;8.13;;
11228;SDS011;5671;47.936;8.716;2023-02-15T13:29:24;10.17;;;9.00;;
11228;SDS011;5671;47.936;8.716;2023-02-15T13:31:55;11.00;;;9.17;;
11228;SDS011;5671;47.936;8.716;2023-02-15T13:34:24;16.03;;;12.87;;
11228;SDS011;5671;47.936;8.716;2023-02-15T13:36:57;14.60;;;10.83;;
11228;SDS011;5671;47.936;8.716;2023-02-15T13:39:31;16.20;;;10.03;;
11228;SDS011;5671;47.936;8.716;2023-02-15T13:42:09;12.90;;;10.30;;
11228;SDS011;5671;47.936;8.716;2023-02-15T13:44:54;14.30;;;11.03;;
11228;SDS011;5671;47.936;8.716;2023-02-15T13:47:32;13.33;;;9.67;;
11228;SDS011;5671;47.936;8.716;2023-02-15T13:50:10;14.73;;;9.67;;
11228;SDS011;5671;47.936;8.716;2023-02-15T13:52:56;11.67;;;9.30;;
11228;SDS011;5671;47.936;8.716;2023-02-15T13:55:35;10.37;;;9.37;;
11228;SDS011;5671;47.936;8.716;2023-02-15T13:58:17;10.77;;;9.67;;
11228;SDS011;5671;47.936;8.716;2023-02-15T14:00:58;12.83;;;10.47;;
11228;SDS011;5671;47.936;8.716;2023-02-15T14:06:41;13.27;;;10.03;;
11228;SDS011;5671;47.936;8.716;2023-02-15T14:09:33;15.93;;;9.90;;
11228;SDS011;5671;47.936;8.716;2023-02-15T14:12:15;15.73;;;9.73;;
11228;SDS011;5671;47.936;8.716;2023-02-15T14:15:03;14.73;;;9.97;;
11228;SDS011;5671;47.936;8.716;2023-02-15T14:17:43;12.33;;;8.27;;
11228;SDS011;5671;47.936;8.716;2023-02-15T14:20:19;12.73;;;8.93;;
11228;SDS011;5671;47.936;8.716;2023-02-15T14:22:52;11.67;;;8.27;;
11228;SDS011;5671;47.936;8.716;2023-02-15T14:25:27;12.17;;;8.50;;
11228;SDS011;5671;47.936;8.716;2023-02-15T14:28:02;10.47;;;8.37;;
11228;SDS011;5671;47.936;8.716;2023-02-15T14:30:36;12.00;;;8.40;;
11228;SDS011;5671;47.936;8.716;2023-02-15T14:33:05;9.50;;;8.50;;
11228;SDS011;5671;47.936;8.716;2023-02-15T14:35:36;13.27;;;9.10;;
11228;SDS011;5671;47.936;8.716;2023-02-15T14:38:06;17.07;;;9.03;;
11228;SDS011;5671;47.936;8.716;2023-02-15T14:40:42;10.50;;;8.00;;
11228;SDS011;5671;47.936;8.716;2023-02-15T14:43:31;11.87;;;8.03;;
11228;SDS011;5671;47.936;8.716;2023-02-15T14:46:08;9.03;;;7.90;;
11228;SDS011;5671;47.936;8.716;2023-02-15T14:48:43;9.47;;;8.23;;
11228;SDS011;5671;47.936;8.716;2023-02-15T14:54:52;15.00;;;8.80;;
11228;SDS011;5671;47.936;8.716;2023-02-15T14:57:36;14.70;;;8.43;;
11228;SDS011;5671;47.936;8.716;2023-02-15T15:03:02;11.33;;;8.73;;
11228;SDS011;5671;47.936;8.716;2023-02-15T15:05:46;8.97;;;8.07;;
11228;SDS011;5671;47.936;8.716;2023-02-15T15:08:21;10.00;;;7.50;;
11228;SDS011;5671;47.936;8.716;2023-02-15T15:10:52;9.70;;;8.03;;
11228;SDS011;5671;47.936;8.716;2023-02-15T15:13:53;14.57;;;8.03;;
11228;SDS011;5671;47.936;8.716;2023-02-15T15:16:25;14.80;;;7.77;;
11228;SDS011;5671;47.936;8.716;2023-02-15T15:18:57;11.03;;;8.10;;
11228;SDS011;5671;47.936;8.716;2023-02-15T15:36:22;16.97;;;7.67;;
11228;SDS011;5671;47.936;8.716;2023-02-15T15:39:04;8.17;;;7.37;;
11228;SDS011;5671;47.936;8.716;2023-02-15T15:41:47;11.03;;;7.13;;
11228;SDS011;5671;47.936;8.716;2023-02-15T15:44:45;11.67;;;6.63;;
11228;SDS011;5671;47.936;8.716;2023-02-15T15:47:34;12.53;;;6.80;;
11228;SDS011;5671;47.936;8.716;2023-02-15T15:50:13;15.03;;;6.87;;
11228;SDS011;5671;47.936;8.716;2023-02-15T15:52:41;12.53;;;6.70;;